sensor_id;sensor_type;location;lat;lon;timestamp;temperature;humidity
42715;DHT22;28351;51.480;5.706;2024-03-08T00:03:57;3.10;99.90
42715;DHT22;28351;51.480;5.706;2024-03-08T00:56:20;2.60;99.90
42715;DHT22;28351;51.480;5.706;2024-03-08T00:59:06;2.60;99.90
42715;DHT22;28351;51.480;5.706;2024-03-08T11:14:45;10.50;94.70
42715;DHT22;28351;51.480;5.706;2024-03-08T11:42:22;13.30;88.50
42715;DHT22;28351;51.480;5.706;2024-03-08T11:44:53;14.60;87.00
42715;DHT22;28351;51.480;5.706;2024-03-08T11:47:21;14.80;84.90
42715;DHT22;28351;51.480;5.706;2024-03-08T11:52:44;15.40;82.00
42715;DHT22;28351;51.480;5.706;2024-03-08T11:55:11;15.50;80.70
42715;DHT22;28351;51.480;5.706;2024-03-08T11:57:38;16.20;80.60
42715;DHT22;28351;51.480;5.706;2024-03-08T12:00:04;17.10;78.40
42715;DHT22;28351;51.480;5.706;2024-03-08T12:02:33;17.90;76.90
42715;DHT22;28351;51.480;5.706;2024-03-08T12:05:04;17.40;75.80
42715;DHT22;28351;51.480;5.706;2024-03-08T12:07:31;17.50;76.90
42715;DHT22;28351;51.480;5.706;2024-03-08T12:10:17;17.50;76.00
42715;DHT22;28351;51.480;5.706;2024-03-08T12:12:47;17.60;76.50
42715;DHT22;28351;51.480;5.706;2024-03-08T12:15:14;17.40;76.00
42715;DHT22;28351;51.480;5.706;2024-03-08T12:17:41;17.80;74.40
42715;DHT22;28351;51.480;5.706;2024-03-08T12:20:21;18.70;75.00
42715;DHT22;28351;51.480;5.706;2024-03-08T12:22:50;19.70;73.50
42715;DHT22;28351;51.480;5.706;2024-03-08T12:25:19;19.70;70.60
42715;DHT22;28351;51.480;5.706;2024-03-08T12:27:46;19.80;72.70
42715;DHT22;28351;51.480;5.706;2024-03-08T12:30:18;20.10;71.80
42715;DHT22;28351;51.480;5.706;2024-03-08T12:32:52;19.10;70.80
42715;DHT22;28351;51.480;5.706;2024-03-08T12:35:23;18.60;71.70
42715;DHT22;28351;51.480;5.706;2024-03-08T12:37:54;18.30;72.10
42715;DHT22;28351;51.480;5.706;2024-03-08T12:40:31;18.40;72.30
42715;DHT22;28351;51.480;5.706;2024-03-08T12:43:03;17.90;72.30
42715;DHT22;28351;51.480;5.706;2024-03-08T12:45:28;17.30;72.90
42715;DHT22;28351;51.480;5.706;2024-03-08T12:47:55;17.60;72.70
42715;DHT22;28351;51.480;5.706;2024-03-08T12:50:21;17.80;71.50
42715;DHT22;28351;51.480;5.706;2024-03-08T12:52:47;18.30;72.40
42715;DHT22;28351;51.480;5.706;2024-03-08T12:55:14;19.10;71.40
42715;DHT22;28351;51.480;5.706;2024-03-08T12:57:41;19.20;69.90
42715;DHT22;28351;51.480;5.706;2024-03-08T13:00:08;19.20;71.10
42715;DHT22;28351;51.480;5.706;2024-03-08T13:02:39;18.30;71.10
42715;DHT22;28351;51.480;5.706;2024-03-08T13:05:05;18.70;71.70
42715;DHT22;28351;51.480;5.706;2024-03-08T13:07:31;19.40;71.70
42715;DHT22;28351;51.480;5.706;2024-03-08T13:09:57;19.00;69.40
42715;DHT22;28351;51.480;5.706;2024-03-08T13:12:25;18.70;70.20
42715;DHT22;28351;51.480;5.706;2024-03-08T13:14:51;19.00;70.30
42715;DHT22;28351;51.480;5.706;2024-03-08T13:17:17;18.40;70.10
42715;DHT22;28351;51.480;5.706;2024-03-08T13:19:44;18.30;70.40
42715;DHT22;28351;51.480;5.706;2024-03-08T13:22:10;18.70;71.10
42715;DHT22;28351;51.480;5.706;2024-03-08T13:24:44;18.30;70.10
42715;DHT22;28351;51.480;5.706;2024-03-08T13:27:11;18.30;70.70
42715;DHT22;28351;51.480;5.706;2024-03-08T13:29:47;18.50;70.50
42715;DHT22;28351;51.480;5.706;2024-03-08T13:32:16;19.80;69.70
42715;DHT22;28351;51.480;5.706;2024-03-08T13:34:45;20.20;68.80
42715;DHT22;28351;51.480;5.706;2024-03-08T13:37:11;19.60;69.40
42715;DHT22;28351;51.480;5.706;2024-03-08T13:39:37;20.00;69.20
42715;DHT22;28351;51.480;5.706;2024-03-08T13:42:15;19.90;67.50
42715;DHT22;28351;51.480;5.706;2024-03-08T13:44:48;19.60;69.00
42715;DHT22;28351;51.480;5.706;2024-03-08T13:47:16;19.80;68.60
42715;DHT22;28351;51.480;5.706;2024-03-08T13:49:43;20.50;68.60
42715;DHT22;28351;51.480;5.706;2024-03-08T13:52:09;20.00;67.80
42715;DHT22;28351;51.480;5.706;2024-03-08T13:54:36;19.40;69.30
42715;DHT22;28351;51.480;5.706;2024-03-08T13:57:02;20.10;69.50
42715;DHT22;28351;51.480;5.706;2024-03-08T13:59:32;19.60;69.80
42715;DHT22;28351;51.480;5.706;2024-03-08T14:02:02;20.30;71.00
42715;DHT22;28351;51.480;5.706;2024-03-08T14:04:30;20.50;68.30
42715;DHT22;28351;51.480;5.706;2024-03-08T14:06:56;20.10;67.40
42715;DHT22;28351;51.480;5.706;2024-03-08T14:09:24;19.40;68.80
42715;DHT22;28351;51.480;5.706;2024-03-08T14:11:54;18.60;69.20
42715;DHT22;28351;51.480;5.706;2024-03-08T14:14:21;19.20;70.10
42715;DHT22;28351;51.480;5.706;2024-03-08T14:16:49;19.50;67.60
42715;DHT22;28351;51.480;5.706;2024-03-08T14:19:18;19.60;68.10
42715;DHT22;28351;51.480;5.706;2024-03-08T14:21:44;19.40;67.90
42715;DHT22;28351;51.480;5.706;2024-03-08T14:24:10;19.30;68.90
42715;DHT22;28351;51.480;5.706;2024-03-08T14:26:36;18.90;69.20
42715;DHT22;28351;51.480;5.706;2024-03-08T14:29:04;19.40;68.80
42715;DHT22;28351;51.480;5.706;2024-03-08T14:31:31;19.90;68.70
42715;DHT22;28351;51.480;5.706;2024-03-08T14:33:56;19.80;67.30
42715;DHT22;28351;51.480;5.706;2024-03-08T14:36:24;19.70;69.20
42715;DHT22;28351;51.480;5.706;2024-03-08T14:38:51;19.50;67.80
42715;DHT22;28351;51.480;5.706;2024-03-08T14:41:18;19.40;66.70
42715;DHT22;28351;51.480;5.706;2024-03-08T14:43:43;19.50;68.40
42715;DHT22;28351;51.480;5.706;2024-03-08T14:46:13;19.80;66.20
42715;DHT22;28351;51.480;5.706;2024-03-08T14:48:43;19.30;66.90
42715;DHT22;28351;51.480;5.706;2024-03-08T14:51:11;18.00;69.30
42715;DHT22;28351;51.480;5.706;2024-03-08T14:53:40;16.60;70.60
42715;DHT22;28351;51.480;5.706;2024-03-08T14:56:09;15.40;73.00
42715;DHT22;28351;51.480;5.706;2024-03-08T14:58:35;14.50;76.20
42715;DHT22;28351;51.480;5.706;2024-03-08T15:01:01;14.20;76.40
42715;DHT22;28351;51.480;5.706;2024-03-08T15:03:27;14.10;77.10
42715;DHT22;28351;51.480;5.706;2024-03-08T15:05:54;13.90;78.70
42715;DHT22;28351;51.480;5.706;2024-03-08T15:08:21;13.50;76.70
42715;DHT22;28351;51.480;5.706;2024-03-08T15:10:48;13.30;77.10
42715;DHT22;28351;51.480;5.706;2024-03-08T15:13:20;13.10;77.20
42715;DHT22;28351;51.480;5.706;2024-03-08T15:15:48;13.10;78.30
42715;DHT22;28351;51.480;5.706;2024-03-08T15:18:22;13.10;76.70
42715;DHT22;28351;51.480;5.706;2024-03-08T15:20:51;13.70;77.70
42715;DHT22;28351;51.480;5.706;2024-03-08T15:23:17;15.20;75.00
42715;DHT22;28351;51.480;5.706;2024-03-08T15:25:42;16.30;72.60
42715;DHT22;28351;51.480;5.706;2024-03-08T15:28:17;16.20;72.00
42715;DHT22;28351;51.480;5.706;2024-03-08T15:30:46;16.60;71.20
42715;DHT22;28351;51.480;5.706;2024-03-08T15:33:19;16.50;72.50
42715;DHT22;28351;51.480;5.706;2024-03-08T15:35:52;17.30;71.30
42715;DHT22;28351;51.480;5.706;2024-03-08T15:38:25;17.00;70.40
42715;DHT22;28351;51.480;5.706;2024-03-08T15:40:53;16.50;70.60
42715;DHT22;28351;51.480;5.706;2024-03-08T15:43:20;15.40;72.30
42715;DHT22;28351;51.480;5.706;2024-03-08T15:45:46;14.30;73.70
42715;DHT22;28351;51.480;5.706;2024-03-08T15:48:12;13.50;76.80
42715;DHT22;28351;51.480;5.706;2024-03-08T15:50:38;13.10;78.30
42715;DHT22;28351;51.480;5.706;2024-03-08T15:53:04;12.70;76.80
42715;DHT22;28351;51.480;5.706;2024-03-08T15:55:30;12.40;78.30
42715;DHT22;28351;51.480;5.706;2024-03-08T15:57:56;12.20;79.20
42715;DHT22;28351;51.480;5.706;2024-03-08T16:00:25;12.00;79.00
42715;DHT22;28351;51.480;5.706;2024-03-08T16:06:39;11.90;79.90
42715;DHT22;28351;51.480;5.706;2024-03-08T16:09:10;11.90;81.00
42715;DHT22;28351;51.480;5.706;2024-03-08T16:11:40;11.80;81.50
42715;DHT22;28351;51.480;5.706;2024-03-08T16:14:06;11.80;82.00
42715;DHT22;28351;51.480;5.706;2024-03-08T16:20:09;11.60;82.00
42715;DHT22;28351;51.480;5.706;2024-03-08T16:22:45;11.50;80.10
42715;DHT22;28351;51.480;5.706;2024-03-08T16:25:20;11.40;80.60
42715;DHT22;28351;51.480;5.706;2024-03-08T16:27:46;11.40;81.40
42715;DHT22;28351;51.480;5.706;2024-03-08T16:30:13;11.40;82.40
42715;DHT22;28351;51.480;5.706;2024-03-08T16:32:44;11.40;82.10
42715;DHT22;28351;51.480;5.706;2024-03-08T16:35:20;11.30;82.20
42715;DHT22;28351;51.480;5.706;2024-03-08T16:37:46;11.20;82.20
42715;DHT22;28351;51.480;5.706;2024-03-08T16:40:12;11.10;82.50
42715;DHT22;28351;51.480;5.706;2024-03-08T16:42:58;11.10;83.30
42715;DHT22;28351;51.480;5.706;2024-03-08T16:45:34;11.00;85.10
42715;DHT22;28351;51.480;5.706;2024-03-08T16:51:05;10.90;83.80
42715;DHT22;28351;51.480;5.706;2024-03-08T17:55:03;8.90;91.60
